Time;durP1;ratioP1;P1;durP2;ratioP2;P2;SDS_P1;SDS_P2;PMS_P1;PMS_P2;Temp;Humidity;BMP_temperature;BMP_pressure;BME280_temperature;BME280_humidity;BME280_pressure;Samples;Min_cycle;Max_cycle;Signal;HPM_P1;HPM_P2
2022/04/23 00:00:25;;;;;;;1.23;1.00;;;;;;;;;;7300636;19;141340;-81
2022/04/23 00:02:52;;;;;;;1.10;1.00;;;;;;;;;;7300050;19;142152;-81
2022/04/23 00:05:19;;;;;;;1.20;1.00;;;;;;;;;;7299440;19;140657;-80
2022/04/23 00:07:46;;;;;;;1.00;0.90;;;;;;;;;;7299907;19;140720;-80
2022/04/23 00:10:13;;;;;;;1.52;1.10;;;;;;;;;;7301010;19;141205;-80
2022/04/23 00:12:46;;;;;;;0.73;0.70;;;;;;;;;;7299540;19;141042;-80
2022/04/23 00:15:13;;;;;;;0.73;0.73;;;;;;;;;;7298566;19;140821;-80
2022/04/23 00:17:43;;;;;;;0.90;0.80;;;;;;;;;;7299205;19;140687;-80
2022/04/23 00:20:12;;;;;;;1.35;1.00;;;;;;;;;;7299827;19;141323;-80
2022/04/23 00:22:40;;;;;;;1.17;0.95;;;;;;;;;;7297962;19;142093;-80
2022/04/23 00:25:08;;;;;;;1.20;0.88;;;;;;;;;;7299496;19;141162;-79
2022/04/23 00:27:35;;;;;;;1.08;0.98;;;;;;;;;;7298307;19;140657;-80
2022/04/23 00:30:03;;;;;;;1.05;0.80;;;;;;;;;;7299913;19;140530;-79
2022/04/23 00:32:31;;;;;;;1.27;0.90;;;;;;;;;;7297843;19;140900;-80
2022/04/23 00:34:58;;;;;;;1.08;0.93;;;;;;;;;;7298519;19;140665;-80
2022/04/23 00:37:26;;;;;;;1.30;0.98;;;;;;;;;;7299872;19;141228;-79
2022/04/23 00:39:53;;;;;;;0.93;0.80;;;;;;;;;;7297443;19;141394;-80
2022/04/23 00:42:20;;;;;;;0.85;0.82;;;;;;;;;;7299276;19;142344;-80
2022/04/23 00:44:47;;;;;;;0.77;0.77;;;;;;;;;;7299760;19;140615;-80
2022/04/23 00:47:14;;;;;;;0.95;0.82;;;;;;;;;;7298267;19;140862;-79
2022/04/23 00:49:41;;;;;;;1.05;0.88;;;;;;;;;;7299190;19;141261;-80
2022/04/23 00:52:09;;;;;;;1.02;0.85;;;;;;;;;;7298294;19;143170;-79
2022/04/23 00:54:36;;;;;;;0.75;0.75;;;;;;;;;;7298502;19;140748;-80
2022/04/23 00:57:05;;;;;;;0.80;0.77;;;;;;;;;;7299332;19;140636;-79
2022/04/23 00:59:32;;;;;;;0.98;0.80;;;;;;;;;;7298994;19;141232;-79
2022/04/23 01:02:02;;;;;;;1.23;0.88;;;;;;;;;;7296626;19;142994;-80
2022/04/23 01:04:30;;;;;;;1.20;0.90;;;;;;;;;;7299151;19;140539;-80
2022/04/23 01:06:59;;;;;;;0.77;0.70;;;;;;;;;;7298949;19;141228;-80
2022/04/23 01:09:27;;;;;;;1.08;0.77;;;;;;;;;;7298924;19;141870;-81
2022/04/23 01:11:58;;;;;;;0.82;0.70;;;;;;;;;;7296964;19;142500;-80
2022/04/23 01:14:26;;;;;;;;;;;;;;;;;;7299499;19;140910;-79
2022/04/23 01:16:53;;;;;;;0.95;0.82;;;;;;;;;;7296912;19;140801;-79
2022/04/23 01:19:22;;;;;;;0.68;0.68;;;;;;;;;;7294914;19;142248;-79
2022/04/23 01:21:49;;;;;;;1.00;0.80;;;;;;;;;;7298249;19;142043;-79
2022/04/23 01:24:18;;;;;;;0.68;0.68;;;;;;;;;;7298007;19;140583;-79
2022/04/23 01:26:45;;;;;;;1.27;0.70;;;;;;;;;;7298429;19;140672;-79
2022/04/23 01:29:12;;;;;;;0.82;0.77;;;;;;;;;;7297935;19;141878;-79
2022/04/23 01:31:39;;;;;;;0.70;0.70;;;;;;;;;;7298080;19;140820;-79
2022/04/23 01:34:06;;;;;;;0.82;0.80;;;;;;;;;;7297645;19;140873;-79
2022/04/23 01:36:33;;;;;;;1.10;0.77;;;;;;;;;;7297823;19;140823;-80
2022/04/23 01:39:00;;;;;;;0.75;0.75;;;;;;;;;;7299376;19;140552;-80
2022/04/23 01:41:28;;;;;;;0.98;0.88;;;;;;;;;;7301471;19;140805;-80
2022/04/23 01:43:55;;;;;;;1.00;0.80;;;;;;;;;;7301195;19;140581;-80
2022/04/23 01:46:22;;;;;;;1.00;0.80;;;;;;;;;;7299308;19;140817;-80
2022/04/23 01:48:49;;;;;;;0.80;0.80;;;;;;;;;;7297309;19;142941;-79
2022/04/23 01:51:16;;;;;;;0.95;0.80;;;;;;;;;;7297038;19;141893;-79
2022/04/23 01:53:44;;;;;;;0.70;0.70;;;;;;;;;;7297531;19;140997;-80
2022/04/23 01:56:11;;;;;;;0.95;0.88;;;;;;;;;;7297581;19;140612;-80
2022/04/23 01:58:38;;;;;;;1.02;0.80;;;;;;;;;;7295427;19;141176;-80
2022/04/23 02:01:05;;;;;;;0.57;0.55;;;;;;;;;;7295489;19;140838;-79
2022/04/23 02:03:34;;;;;;;0.93;0.68;;;;;;;;;;7296924;19;140633;-80
2022/04/23 02:06:01;;;;;;;1.00;0.90;;;;;;;;;;7297457;19;140873;-79
2022/04/23 02:08:28;;;;;;;0.88;0.73;;;;;;;;;;7296712;19;141874;-79
2022/04/23 02:10:56;;;;;;;0.90;0.80;;;;;;;;;;7296310;19;142022;-79
2022/04/23 02:13:23;;;;;;;0.75;0.70;;;;;;;;;;7295386;19;140543;-80
2022/04/23 02:15:50;;;;;;;0.80;0.80;;;;;;;;;;7295733;19;140861;-80
2022/04/23 02:18:17;;;;;;;0.75;0.75;;;;;;;;;;7296044;19;141282;-79
2022/04/23 02:20:45;;;;;;;0.80;0.80;;;;;;;;;;7296985;19;140770;-80
2022/04/23 02:23:12;;;;;;;0.70;0.68;;;;;;;;;;7295119;19;140540;-80
2022/04/23 02:25:39;;;;;;;0.82;0.77;;;;;;;;;;7295220;19;140728;-80
2022/04/23 02:28:06;;;;;;;1.10;0.80;;;;;;;;;;7296185;19;140835;-80
2022/04/23 02:30:34;;;;;;;0.85;0.80;;;;;;;;;;7298243;19;141296;-80
2022/04/23 02:33:01;;;;;;;0.75;0.75;;;;;;;;;;7302610;19;141252;-80
2022/04/23 02:35:28;;;;;;;0.68;0.63;;;;;;;;;;7303245;19;140813;-80
2022/04/23 02:37:56;;;;;;;0.80;0.70;;;;;;;;;;7303958;19;140963;-81
2022/04/23 02:40:24;;;;;;;1.27;0.80;;;;;;;;;;7303587;19;142649;-80
2022/04/23 02:42:51;;;;;;;0.63;0.57;;;;;;;;;;7303591;19;142784;-80
2022/04/23 02:45:20;;;;;;;0.70;0.70;;;;;;;;;;7301403;19;140701;-80
2022/04/23 02:47:52;;;;;;;0.77;0.60;;;;;;;;;;7300809;19;141251;-79
2022/04/23 02:50:25;;;;;;;0.93;0.70;;;;;;;;;;7301584;19;141978;-79
2022/04/23 02:52:55;;;;;;;0.77;0.60;;;;;;;;;;7303604;19;140680;-79
2022/04/23 02:55:27;;;;;;;0.85;0.80;;;;;;;;;;7303437;19;140611;-79
2022/04/23 02:57:56;;;;;;;0.50;0.50;;;;;;;;;;7303165;19;141209;-79
2022/04/23 03:00:24;;;;;;;0.80;0.80;;;;;;;;;;7302762;19;142265;-79
2022/04/23 03:02:52;;;;;;;1.20;0.80;;;;;;;;;;7301025;19;140650;-79
2022/04/23 03:05:20;;;;;;;1.00;0.90;;;;;;;;;;7302992;19;140778;-79
2022/04/23 03:07:48;;;;;;;0.73;0.60;;;;;;;;;;7302814;19;142359;-79
2022/04/23 03:10:16;;;;;;;0.80;0.80;;;;;;;;;;7302042;19;142010;-79
2022/04/23 03:12:44;;;;;;;0.70;0.70;;;;;;;;;;7302786;19;140720;-80
2022/04/23 03:15:16;;;;;;;0.60;0.60;;;;;;;;;;7300925;19;140805;-80
2022/04/23 03:17:45;;;;;;;0.70;0.60;;;;;;;;;;7302118;19;141464;-79
2022/04/23 03:20:13;;;;;;;0.60;0.60;;;;;;;;;;7301803;19;141883;-80
2022/04/23 03:22:41;;;;;;;0.70;0.70;;;;;;;;;;7300965;19;140906;-79
2022/04/23 03:25:11;;;;;;;1.10;1.00;;;;;;;;;;7301517;19;140675;-80
2022/04/23 03:27:39;;;;;;;0.63;0.63;;;;;;;;;;7303106;19;141131;-80
2022/04/23 03:30:08;;;;;;;0.98;0.75;;;;;;;;;;7300913;19;142901;-79
2022/04/23 03:32:35;;;;;;;0.80;0.75;;;;;;;;;;7299928;19;140908;-80
2022/04/23 03:35:05;;;;;;;0.77;0.77;;;;;;;;;;7302946;19;140632;-80
2022/04/23 03:37:37;;;;;;;0.88;0.60;;;;;;;;;;7300702;19;141087;-80
2022/04/23 03:40:06;;;;;;;0.90;0.70;;;;;;;;;;7301594;19;141886;-79
2022/04/23 03:42:34;;;;;;;1.27;0.60;;;;;;;;;;7299765;19;140785;-79
2022/04/23 03:45:09;;;;;;;0.75;0.70;;;;;;;;;;7302028;19;141108;-79
2022/04/23 03:47:36;;;;;;;0.85;0.65;;;;;;;;;;7298794;19;140764;-79
2022/04/23 03:50:05;;;;;;;1.20;0.70;;;;;;;;;;7301774;19;142949;-80
2022/04/23 03:52:33;;;;;;;0.80;0.73;;;;;;;;;;7303928;19;140716;-78
2022/04/23 03:55:01;;;;;;;0.70;0.70;;;;;;;;;;7314832;19;140671;-79
2022/04/23 03:57:28;;;;;;;1.45;0.90;;;;;;;;;;7307760;19;141235;-79
2022/04/23 03:59:55;;;;;;;0.65;0.65;;;;;;;;;;7299128;19;142539;-79
2022/04/23 04:02:23;;;;;;;0.73;0.70;;;;;;;;;;7299194;19;140750;-81
2022/04/23 04:04:51;;;;;;;0.60;0.60;;;;;;;;;;7300688;19;140910;-81
2022/04/23 04:07:18;;;;;;;0.70;0.70;;;;;;;;;;7300384;19;141896;-81
2022/04/23 04:09:46;;;;;;;0.80;0.60;;;;;;;;;;7300547;19;141079;-81
2022/04/23 04:12:13;;;;;;;0.90;0.70;;;;;;;;;;7301223;19;140515;-80
2022/04/23 04:14:42;;;;;;;1.20;0.80;;;;;;;;;;7300721;19;140878;-79
2022/04/23 04:17:11;;;;;;;0.70;0.63;;;;;;;;;;7300494;19;141341;-80
2022/04/23 04:19:38;;;;;;;0.70;0.70;;;;;;;;;;7299697;19;143044;-80
2022/04/23 04:22:09;;;;;;;0.63;0.63;;;;;;;;;;7301382;19;140572;-79
2022/04/23 04:24:36;;;;;;;1.03;0.80;;;;;;;;;;7300870;19;140582;-79
2022/04/23 04:27:07;;;;;;;0.70;0.60;;;;;;;;;;7298953;19;142498;-79
2022/04/23 04:29:34;;;;;;;0.73;0.60;;;;;;;;;;7297973;19;141922;-80
2022/04/23 04:32:01;;;;;;;1.25;0.85;;;;;;;;;;7300371;19;140751;-80
2022/04/23 04:34:32;;;;;;;0.77;0.75;;;;;;;;;;7299636;19;140804;-80
2022/04/23 04:37:05;;;;;;;0.85;0.70;;;;;;;;;;7299414;19;140928;-81
2022/04/23 04:39:33;;;;;;;0.65;0.65;;;;;;;;;;7299598;19;142041;-80
2022/04/23 04:42:01;;;;;;;0.60;0.60;;;;;;;;;;7297455;19;140951;-80
2022/04/23 04:44:28;;;;;;;0.70;0.70;;;;;;;;;;7299321;19;140572;-80
2022/04/23 04:46:55;;;;;;;0.88;0.70;;;;;;;;;;7297468;19;141375;-79
2022/04/23 04:49:22;;;;;;;0.80;0.80;;;;;;;;;;7297025;19;142517;-79
2022/04/23 04:51:50;;;;;;;0.85;0.85;;;;;;;;;;7297866;19;140705;-80
2022/04/23 04:54:18;;;;;;;0.70;0.70;;;;;;;;;;7296959;19;141144;-80
2022/04/23 04:56:45;;;;;;;0.65;0.60;;;;;;;;;;7299618;19;142354;-79
2022/04/23 04:59:12;;;;;;;0.90;0.75;;;;;;;;;;7298249;19;141930;-80
2022/04/23 05:01:41;;;;;;;0.70;0.70;;;;;;;;;;7299770;19;141208;-80
2022/04/23 05:04:08;;;;;;;0.73;0.63;;;;;;;;;;7298552;19;140547;-80
2022/04/23 05:06:35;;;;;;;0.90;0.73;;;;;;;;;;7297912;19;141255;-80
2022/04/23 05:09:03;;;;;;;0.70;0.70;;;;;;;;;;7296968;19;142658;-80
2022/04/23 05:11:33;;;;;;;0.50;0.50;;;;;;;;;;7299398;19;140839;-80
2022/04/23 05:14:00;;;;;;;0.77;0.70;;;;;;;;;;7298917;19;140562;-80
2022/04/23 05:16:27;;;;;;;0.68;0.68;;;;;;;;;;7298566;19;142928;-80
2022/04/23 05:18:54;;;;;;;0.85;0.57;;;;;;;;;;7296047;19;142435;-80
2022/04/23 05:21:22;;;;;;;0.70;0.70;;;;;;;;;;7298673;19;140599;-80
2022/04/23 05:23:49;;;;;;;0.68;0.60;;;;;;;;;;7297809;19;140460;-80
2022/04/23 05:26:16;;;;;;;0.60;0.60;;;;;;;;;;7296772;19;141235;-80
2022/04/23 05:28:43;;;;;;;0.70;0.70;;;;;;;;;;7298607;19;141869;-80
2022/04/23 05:31:10;;;;;;;0.70;0.70;;;;;;;;;;7299012;19;140535;-81
2022/04/23 05:33:38;;;;;;;0.88;0.70;;;;;;;;;;7297254;19;140987;-80
2022/04/23 05:36:06;;;;;;;0.70;0.60;;;;;;;;;;7296838;19;140628;-80
2022/04/23 05:38:37;;;;;;;0.60;0.60;;;;;;;;;;7295808;19;140922;-79
2022/04/23 05:41:05;;;;;;;0.60;0.60;;;;;;;;;;7297960;19;140555;-80
2022/04/23 05:43:32;;;;;;;0.77;0.73;;;;;;;;;;7297678;19;140812;-79
2022/04/23 05:46:00;;;;;;;0.65;0.65;;;;;;;;;;7298070;19;141007;-80
2022/04/23 05:48:27;;;;;;;0.63;0.60;;;;;;;;;;7294632;19;140951;-80
2022/04/23 05:50:55;;;;;;;1.33;0.85;;;;;;;;;;7298354;19;140720;-80
2022/04/23 05:53:22;;;;;;;0.60;0.60;;;;;;;;;;7296130;19;140638;-80
2022/04/23 05:55:50;;;;;;;0.77;0.68;;;;;;;;;;7297292;19;141000;-80
2022/04/23 05:58:17;;;;;;;0.80;0.70;;;;;;;;;;7297558;19;141773;-80
2022/04/23 06:00:44;;;;;;;0.60;0.60;;;;;;;;;;7297280;19;141253;-80
2022/04/23 06:03:12;;;;;;;0.68;0.68;;;;;;;;;;7306692;19;140315;-81
2022/04/23 06:05:39;;;;;;;0.85;0.80;;;;;;;;;;7312498;19;141373;-80
2022/04/23 06:08:07;;;;;;;0.70;0.60;;;;;;;;;;7314485;19;140937;-80
2022/04/23 06:10:35;;;;;;;1.05;0.70;;;;;;;;;;7304475;19;140708;-80
2022/04/23 06:13:02;;;;;;;0.65;0.60;;;;;;;;;;7303984;19;140714;-81
2022/04/23 06:15:30;;;;;;;0.40;0.40;;;;;;;;;;7304807;19;141844;-81
2022/04/23 06:17:59;;;;;;;0.95;0.50;;;;;;;;;;7304464;19;141614;-79
2022/04/23 06:20:27;;;;;;;0.80;0.57;;;;;;;;;;7304597;19;140669;-80
2022/04/23 06:22:54;;;;;;;0.60;0.57;;;;;;;;;;7304071;19;140870;-80
2022/04/23 06:25:21;;;;;;;0.73;0.65;;;;;;;;;;7304085;19;141913;-80
2022/04/23 06:27:50;;;;;;;0.88;0.60;;;;;;;;;;7302262;19;142966;-80
2022/04/23 06:30:17;;;;;;;0.68;0.68;;;;;;;;;;7304129;19;141213;-81
2022/04/23 06:32:44;;;;;;;0.52;0.52;;;;;;;;;;7303797;19;140540;-81
2022/04/23 06:35:11;;;;;;;1.20;0.60;;;;;;;;;;7302681;19;140662;-81
2022/04/23 06:37:42;;;;;;;0.68;0.63;;;;;;;;;;7303101;19;141033;-81
2022/04/23 06:40:13;;;;;;;0.50;0.50;;;;;;;;;;7302292;19;140636;-81
2022/04/23 06:42:41;;;;;;;0.63;0.60;;;;;;;;;;7303847;19;140961;-81
2022/04/23 06:45:10;;;;;;;0.60;0.50;;;;;;;;;;7297954;19;143077;-81
2022/04/23 06:47:37;;;;;;;0.60;0.60;;;;;;;;;;7302646;19;141872;-81
2022/04/23 06:50:06;;;;;;;0.57;0.50;;;;;;;;;;7302804;19;140753;-81
2022/04/23 06:52:33;;;;;;;0.73;0.60;;;;;;;;;;7300453;19;141906;-81
2022/04/23 06:55:07;;;;;;;0.68;0.60;;;;;;;;;;7301413;19;140970;-81
2022/04/23 06:57:57;;;;;;;0.50;0.50;;;;;;;;;;7303042;19;140861;-81
2022/04/23 07:00:27;;;;;;;0.50;0.50;;;;;;;;;;7303779;19;140847;-81
2022/04/23 07:03:38;;;;;;;0.50;0.50;;;;;;;;;;7301207;19;141285;-82
2022/04/23 07:06:05;;;;;;;0.52;0.50;;;;;;;;;;7300506;19;142495;-81
2022/04/23 07:08:33;;;;;;;0.40;0.40;;;;;;;;;;7300902;19;141019;-82
2022/04/23 07:11:00;;;;;;;0.57;0.52;;;;;;;;;;7302708;19;140786;-81
2022/04/23 07:13:27;;;;;;;0.60;0.60;;;;;;;;;;7302754;19;140611;-82
2022/04/23 07:15:58;;;;;;;0.70;0.60;;;;;;;;;;7302384;19;140864;-81
2022/04/23 07:18:25;;;;;;;0.57;0.57;;;;;;;;;;7299379;19;141967;-81
2022/04/23 07:21:04;;;;;;;0.47;0.47;;;;;;;;;;7302098;19;141115;-81
2022/04/23 07:24:05;;;;;;;0.60;0.60;;;;;;;;;;7301199;19;140730;-82
2022/04/23 07:26:34;;;;;;;0.50;0.50;;;;;;;;;;7300092;19;140699;-80
2022/04/23 07:29:05;;;;;;;0.63;0.63;;;;;;;;;;7301840;19;142863;-80
2022/04/23 07:31:32;;;;;;;0.47;0.40;;;;;;;;;;7306306;19;141293;-80
2022/04/23 07:39:32;;;;;;;0.60;0.60;;;;;;;;;;7302529;19;141591;-82
2022/04/23 07:42:02;;;;;;;0.60;0.50;;;;;;;;;;7302439;19;140546;-81
2022/04/23 07:44:30;;;;;;;0.52;0.50;;;;;;;;;;7302647;19;141186;-81
2022/04/23 07:47:06;;;;;;;0.43;0.40;;;;;;;;;;7302007;19;140841;-86
2022/04/23 07:49:55;;;;;;;0.68;0.60;;;;;;;;;;7301003;19;141391;-82
2022/04/23 07:52:22;;;;;;;0.60;0.55;;;;;;;;;;7301191;19;140847;-81
2022/04/23 07:54:50;;;;;;;0.40;0.40;;;;;;;;;;7299918;19;140554;-84
2022/04/23 07:57:23;;;;;;;0.95;0.70;;;;;;;;;;7299463;19;141239;-81
2022/04/23 07:59:50;;;;;;;1.25;0.93;;;;;;;;;;7301102;19;141510;-81
2022/04/23 08:02:18;;;;;;;1.70;1.13;;;;;;;;;;7301076;19;140894;-80
2022/04/23 08:04:46;;;;;;;9.43;1.30;;;;;;;;;;7298988;19;140942;-85
2022/04/23 08:07:15;;;;;;;3.60;1.30;;;;;;;;;;7298341;19;141408;-82
2022/04/23 08:09:42;;;;;;;1.80;1.10;;;;;;;;;;7299376;19;143597;-81
2022/04/23 08:12:10;;;;;;;1.00;0.90;;;;;;;;;;7301135;19;140593;-81
2022/04/23 08:14:47;;;;;;;2.47;1.20;;;;;;;;;;7300850;19;140827;-82
2022/04/23 08:17:17;;;;;;;3.70;1.27;;;;;;;;;;7300175;19;141019;-81
2022/04/23 08:19:44;;;;;;;1.60;1.48;;;;;;;;;;7298487;19;141566;-81
2022/04/23 08:22:15;;;;;;;1.63;1.00;;;;;;;;;;7298907;19;140823;-81
2022/04/23 08:24:42;;;;;;;;;;;;;;;;;;7301005;19;140955;-81
2022/04/23 08:27:09;;;;;;;2.17;1.15;;;;;;;;;;7298658;19;152885;-81
2022/04/23 08:32:25;;;;;;;1.40;0.98;;;;;;;;;;7301167;19;140623;-81
2022/04/23 08:34:56;;;;;;;1.48;0.93;;;;;;;;;;7298574;19;140951;-82
2022/04/23 08:37:29;;;;;;;1.23;1.00;;;;;;;;;;7299405;19;141382;-81
2022/04/23 08:39:56;;;;;;;2.33;1.10;;;;;;;;;;7299395;19;141445;-81
2022/04/23 08:42:23;;;;;;;1.50;1.10;;;;;;;;;;7298193;19;140706;-78
2022/04/23 08:44:53;;;;;;;2.72;1.02;;;;;;;;;;7302915;19;141014;-78
2022/04/23 08:47:24;;;;;;;1.70;1.20;;;;;;;;;;7301822;19;141160;-78
2022/04/23 08:49:55;;;;;;;3.43;1.20;;;;;;;;;;7299317;19;143209;-78
2022/04/23 08:52:34;;;;;;;1.13;1.00;;;;;;;;;;7301252;19;140623;-78
2022/04/23 08:55:05;;;;;;;1.75;0.80;;;;;;;;;;7301299;19;140663;-79
2022/04/23 08:57:38;;;;;;;1.65;1.23;;;;;;;;;;7299714;19;140622;-78
2022/04/23 09:00:08;;;;;;;1.33;1.00;;;;;;;;;;7298531;19;142047;-78
2022/04/23 09:02:36;;;;;;;2.40;1.20;;;;;;;;;;7298717;19;140885;-78
2022/04/23 09:05:05;;;;;;;5.00;1.17;;;;;;;;;;7297045;19;140765;-78
2022/04/23 09:07:32;;;;;;;2.13;0.98;;;;;;;;;;7297627;19;141104;-78
2022/04/23 09:10:08;;;;;;;2.15;1.20;;;;;;;;;;7299830;19;140721;-77
2022/04/23 09:12:56;;;;;;;2.83;1.25;;;;;;;;;;7297781;19;141130;-78
2022/04/23 09:24:54;;;;;;;3.17;1.33;;;;;;;;;;7295140;19;140863;-78
2022/04/23 09:27:31;;;;;;;3.17;1.05;;;;;;;;;;7296985;19;140549;-79
2022/04/23 09:30:00;;;;;;;2.83;1.10;;;;;;;;;;7296606;19;141789;-80
2022/04/23 09:32:27;;;;;;;4.75;1.40;;;;;;;;;;7297325;19;141207;-78
2022/04/23 09:35:08;;;;;;;4.30;1.15;;;;;;;;;;7297958;19;140806;-78
2022/04/23 09:40:24;;;;;;;4.82;1.38;;;;;;;;;;7300143;19;140536;-77
2022/04/23 09:42:56;;;;;;;4.80;1.50;;;;;;;;;;7305460;19;142711;-77
2022/04/23 09:45:41;;;;;;;3.50;1.40;;;;;;;;;;7302954;19;143545;-80
2022/04/23 09:48:17;;;;;;;6.55;1.35;;;;;;;;;;7304317;19;140623;-78
2022/04/23 09:50:47;;;;;;;5.57;1.70;;;;;;;;;;7305071;19;141759;-78
2022/04/23 09:53:19;;;;;;;5.70;1.63;;;;;;;;;;7306084;19;141012;-78
2022/04/23 09:55:47;;;;;;;4.35;1.50;;;;;;;;;;7305696;19;140478;-78
2022/04/23 09:58:16;;;;;;;6.55;1.50;;;;;;;;;;7305186;19;140678;-79
2022/04/23 10:00:45;;;;;;;8.57;1.80;;;;;;;;;;7304043;19;143063;-79
2022/04/23 10:03:15;;;;;;;2.95;1.52;;;;;;;;;;7302368;19;140774;-81
2022/04/23 10:06:08;;;;;;;6.53;1.75;;;;;;;;;;7302655;19;140759;-78
2022/04/23 10:08:44;;;;;;;7.60;1.73;;;;;;;;;;7301689;19;140917;-79
2022/04/23 10:11:18;;;;;;;4.05;1.80;;;;;;;;;;7304889;19;141359;-77
2022/04/23 10:14:15;;;;;;;5.18;1.60;;;;;;;;;;7302144;19;141304;-80
2022/04/23 10:16:47;;;;;;;3.97;1.80;;;;;;;;;;7302724;19;140930;-77
2022/04/23 10:19:49;;;;;;;7.90;1.52;;;;;;;;;;7303561;19;140867;-89
2022/04/23 10:22:32;;;;;;;7.13;1.70;;;;;;;;;;7303680;19;140529;-78
2022/04/23 10:25:40;;;;;;;4.65;1.70;;;;;;;;;;7302811;19;140922;-78
2022/04/23 10:28:20;;;;;;;4.00;1.65;;;;;;;;;;7302241;19;141158;-78
2022/04/23 10:31:13;;;;;;;4.68;1.80;;;;;;;;;;7304168;19;140883;-77
2022/04/23 10:34:10;;;;;;;4.85;1.65;;;;;;;;;;7303620;19;140617;-77
2022/04/23 10:36:42;;;;;;;10.55;2.00;;;;;;;;;;7301215;19;141137;-79
2022/04/23 10:39:29;;;;;;;4.10;1.77;;;;;;;;;;7300629;19;140690;-78
2022/04/23 10:42:15;;;;;;;4.05;1.50;;;;;;;;;;7301944;19;140753;-80
2022/04/23 10:44:49;;;;;;;4.47;1.50;;;;;;;;;;7303653;19;140979;-80
2022/04/23 10:47:32;;;;;;;6.57;2.10;;;;;;;;;;7300789;19;141759;-81
2022/04/23 10:50:25;;;;;;;4.15;1.70;;;;;;;;;;7302861;19;140669;-78
2022/04/23 10:53:06;;;;;;;5.15;1.50;;;;;;;;;;7301893;19;140788;-78
2022/04/23 10:55:33;;;;;;;6.38;1.50;;;;;;;;;;7301687;19;140886;-78
2022/04/23 10:58:46;;;;;;;5.05;1.30;;;;;;;;;;7302126;19;140890;-78
2022/04/23 11:01:37;;;;;;;4.40;1.40;;;;;;;;;;7300034;19;140671;-79
2022/04/23 11:04:07;;;;;;;6.07;1.65;;;;;;;;;;7301665;19;140986;-77
2022/04/23 11:12:54;;;;;;;7.82;1.63;;;;;;;;;;7304672;19;141157;-76
2022/04/23 11:15:22;;;;;;;2.95;1.60;;;;;;;;;;7303465;19;140585;-78
2022/04/23 11:17:58;;;;;;;2.92;1.30;;;;;;;;;;7315964;19;140793;-77
2022/04/23 11:20:31;;;;;;;2.25;1.60;;;;;;;;;;7322310;19;140700;-78
2022/04/23 11:23:21;;;;;;;2.83;1.40;;;;;;;;;;7317554;19;140613;-77
2022/04/23 11:25:56;;;;;;;3.38;1.38;;;;;;;;;;7307936;19;140910;-77
2022/04/23 11:28:27;;;;;;;2.92;1.65;;;;;;;;;;7306615;19;141971;-77
2022/04/23 11:30:54;;;;;;;2.07;1.10;;;;;;;;;;7305808;19;141714;-80
2022/04/23 11:33:21;;;;;;;2.08;1.17;;;;;;;;;;7303059;19;140941;-77
2022/04/23 11:36:20;;;;;;;2.90;1.40;;;;;;;;;;7300771;19;140979;-85
2022/04/23 11:38:50;;;;;;;3.00;1.40;;;;;;;;;;7300213;19;142778;-82
2022/04/23 11:44:49;;;;;;;3.83;1.00;;;;;;;;;;7302049;19;140735;-80
2022/04/23 11:47:29;;;;;;;3.50;1.27;;;;;;;;;;7300194;19;140569;-80
2022/04/23 11:50:30;;;;;;;2.67;1.50;;;;;;;;;;7303042;19;142143;-83
2022/04/23 11:53:16;;;;;;;5.10;2.40;;;;;;;;;;7298967;19;141613;-80
2022/04/23 11:55:51;;;;;;;5.07;3.80;;;;;;;;;;7302004;19;141132;-79
2022/04/23 11:58:19;;;;;;;8.20;4.95;;;;;;;;;;7299801;19;140891;-79
2022/04/23 12:01:03;;;;;;;8.00;5.03;;;;;;;;;;7301255;19;141382;-79
2022/04/23 12:03:33;;;;;;;8.18;4.63;;;;;;;;;;7299333;19;141921;-80
2022/04/23 12:06:01;;;;;;;7.28;4.68;;;;;;;;;;7298841;19;140697;-79
2022/04/23 12:08:28;;;;;;;7.78;4.85;;;;;;;;;;7300239;19;140859;-80
2022/04/23 12:10:55;;;;;;;6.40;4.43;;;;;;;;;;7302045;19;142478;-80
2022/04/23 12:13:23;;;;;;;5.97;4.15;;;;;;;;;;7299185;19;140697;-78
2022/04/23 12:15:51;;;;;;;6.65;4.28;;;;;;;;;;7301151;19;141108;-81
2022/04/23 12:18:19;;;;;;;10.43;6.80;;;;;;;;;;7300297;19;140615;-79
2022/04/23 12:20:46;;;;;;;11.13;7.80;;;;;;;;;;7298392;19;140733;-78
2022/04/23 12:23:13;;;;;;;11.40;7.82;;;;;;;;;;7300230;19;142546;-80
2022/04/23 12:25:41;;;;;;;14.27;9.05;;;;;;;;;;7300659;19;140555;-80
2022/04/23 12:42:45;;;;;;;13.20;8.80;;;;;;;;;;7299891;19;141317;-82
2022/04/23 12:45:20;;;;;;;12.75;8.52;;;;;;;;;;7297822;19;142303;-82
2022/04/23 12:48:04;;;;;;;12.82;8.73;;;;;;;;;;7299995;19;140509;-82
2022/04/23 12:50:33;;;;;;;12.70;8.55;;;;;;;;;;7299326;19;140705;-82
2022/04/23 12:53:00;;;;;;;13.20;8.30;;;;;;;;;;7297973;19;140642;-82
2022/04/23 12:55:30;;;;;;;13.20;7.72;;;;;;;;;;7299310;19;141291;-83
2022/04/23 12:58:03;;;;;;;14.77;8.18;;;;;;;;;;7299325;19;140981;-83
2022/04/23 13:00:34;;;;;;;13.38;7.40;;;;;;;;;;7299343;19;141483;-83
2022/04/23 13:03:21;;;;;;;12.97;7.10;;;;;;;;;;7299540;19;141031;-83
2022/04/23 13:05:48;;;;;;;10.52;6.85;;;;;;;;;;7298703;19;142119;-82
2022/04/23 13:17:50;;;;;;;10.27;6.43;;;;;;;;;;7298317;19;141426;-88
2022/04/23 13:20:21;;;;;;;10.80;5.85;;;;;;;;;;7299333;19;140641;-87
2022/04/23 13:22:58;;;;;;;7.95;5.63;;;;;;;;;;7296873;19;141064;-85
2022/04/23 13:25:27;;;;;;;7.82;5.35;;;;;;;;;;7300149;19;140861;-86
2022/04/23 13:31:10;;;;;;;10.18;5.60;;;;;;;;;;7297019;19;141000;-85
2022/04/23 13:33:38;;;;;;;8.07;4.90;;;;;;;;;;7297333;19;141241;-86
2022/04/23 13:36:06;;;;;;;7.03;5.10;;;;;;;;;;7298159;19;140630;-86
2022/04/23 13:38:34;;;;;;;9.40;5.28;;;;;;;;;;7285224;19;143093;-85
2022/04/23 13:41:03;;;;;;;8.48;4.75;;;;;;;;;;7299080;19;140850;-85
2022/04/23 13:43:40;;;;;;;8.00;4.65;;;;;;;;;;7296702;19;140754;-86
2022/04/23 13:46:40;;;;;;;;;;;;;;;;;;;;;
2022/04/23 13:49:33;;;;;;;6.05;4.07;;;;;;;;;;7295086;19;140964;-85
2022/04/23 13:52:05;;;;;;;6.32;4.15;;;;;;;;;;7286767;19;143838;-85
2022/04/23 13:54:50;;;;;;;6.20;3.97;;;;;;;;;;7297764;19;140529;-85
2022/04/23 13:57:36;;;;;;;6.80;3.90;;;;;;;;;;7296215;19;141501;-81
2022/04/23 14:01:15;;;;;;;8.32;4.63;;;;;;;;;;7299066;19;141209;-85
2022/04/23 14:10:06;;;;;;;6.22;3.60;;;;;;;;;;7297727;19;140593;-85
2022/04/23 14:12:34;;;;;;;;;;;;;;;;;;7297889;19;140476;-86
2022/04/23 14:15:07;;;;;;;5.32;3.20;;;;;;;;;;7275945;19;143146;-85
2022/04/23 14:17:34;;;;;;;5.70;3.22;;;;;;;;;;7297764;19;140812;-86
2022/04/23 14:20:31;;;;;;;5.13;2.97;;;;;;;;;;7293620;19;140866;-87
2022/04/23 14:23:01;;;;;;;4.18;2.97;;;;;;;;;;7295230;19;141030;-86
2022/04/23 14:25:36;;;;;;;5.85;2.80;;;;;;;;;;7296222;19;141367;-86
2022/04/23 14:28:08;;;;;;;6.13;3.00;;;;;;;;;;7304651;19;141139;-87
2022/04/23 14:30:50;;;;;;;4.60;2.97;;;;;;;;;;7302947;19;141009;-86
2022/04/23 14:36:19;;;;;;;4.45;2.92;;;;;;;;;;7302309;19;141356;-79
2022/04/23 14:38:46;;;;;;;4.88;2.83;;;;;;;;;;7305186;19;140517;-79
2022/04/23 14:41:13;;;;;;;5.03;2.67;;;;;;;;;;7310581;19;140578;-79
2022/04/23 14:43:41;;;;;;;4.55;3.05;;;;;;;;;;7307054;19;140545;-79
2022/04/23 14:46:08;;;;;;;3.78;2.47;;;;;;;;;;7305721;19;140751;-80
2022/04/23 14:48:35;;;;;;;6.15;2.88;;;;;;;;;;7303685;19;140568;-79
2022/04/23 14:54:01;;;;;;;6.55;2.65;;;;;;;;;;7303064;19;142015;-84
2022/04/23 14:56:29;;;;;;;4.13;2.67;;;;;;;;;;7297185;19;141127;-78
2022/04/23 14:58:58;;;;;;;5.32;2.80;;;;;;;;;;7301587;19;140681;-79
2022/04/23 15:01:25;;;;;;;3.88;2.88;;;;;;;;;;7302039;19;140888;-80
2022/04/23 15:03:53;;;;;;;3.63;2.70;;;;;;;;;;7301683;19;141009;-81
2022/04/23 15:06:21;;;;;;;5.07;2.90;;;;;;;;;;7301419;19;140674;-80
2022/04/23 15:08:49;;;;;;;5.75;2.85;;;;;;;;;;7302599;19;140761;-81
2022/04/23 15:11:16;;;;;;;4.45;2.63;;;;;;;;;;7303233;19;140764;-78
2022/04/23 15:13:43;;;;;;;4.30;2.60;;;;;;;;;;7302474;19;141990;-77
2022/04/23 15:16:10;;;;;;;3.75;2.50;;;;;;;;;;7302745;19;140484;-78
2022/04/23 15:18:38;;;;;;;5.80;2.58;;;;;;;;;;7303035;19;140663;-80
2022/04/23 15:21:05;;;;;;;5.15;2.78;;;;;;;;;;7301207;19;142085;-76
2022/04/23 15:23:34;;;;;;;4.13;2.47;;;;;;;;;;7302303;19;142463;-75
2022/04/23 15:26:02;;;;;;;3.55;2.33;;;;;;;;;;7302708;19;140660;-74
2022/04/23 15:28:29;;;;;;;3.80;2.47;;;;;;;;;;7303008;19;140895;-76
2022/04/23 15:30:56;;;;;;;3.72;2.58;;;;;;;;;;7302793;19;140573;-75
2022/04/23 15:33:23;;;;;;;3.65;1.98;;;;;;;;;;7300140;19;141847;-76
2022/04/23 15:35:51;;;;;;;6.88;2.58;;;;;;;;;;7302104;19;140846;-75
2022/04/23 15:38:18;;;;;;;4.65;2.90;;;;;;;;;;7299709;19;141217;-75
2022/04/23 15:40:45;;;;;;;4.05;2.90;;;;;;;;;;7301480;19;141254;-76
2022/04/23 15:43:12;;;;;;;3.90;2.88;;;;;;;;;;7300105;19;141913;-75
2022/04/23 15:45:39;;;;;;;4.45;2.78;;;;;;;;;;7302019;19;140507;-75
2022/04/23 15:48:08;;;;;;;6.63;3.30;;;;;;;;;;7302201;19;141135;-76
2022/04/23 15:50:35;;;;;;;4.65;2.55;;;;;;;;;;7299700;19;141455;-75
2022/04/23 15:53:04;;;;;;;5.40;2.75;;;;;;;;;;7300461;19;141863;-75
2022/04/23 15:55:31;;;;;;;5.45;2.70;;;;;;;;;;7301928;19;140587;-77
2022/04/23 15:57:58;;;;;;;4.30;2.65;;;;;;;;;;7301003;19;140500;-78
2022/04/23 16:00:25;;;;;;;4.68;2.50;;;;;;;;;;7299685;19;141130;-76
2022/04/23 16:05:39;;;;;;;7.50;3.78;;;;;;;;;;7301147;19;140652;-77